sensor_id;sensor_type;location;lat;lon;timestamp;pressure;altitude;pressure_sealevel;temperature;humidity
55656;BME280;41530;52.382;5.270;2023-01-30T00:01:30;101879.72;;;13.59;50.86
55656;BME280;41530;52.382;5.270;2023-01-30T00:03:58;101864.94;;;13.56;50.99
55656;BME280;41530;52.382;5.270;2023-01-30T00:06:25;101859.53;;;13.58;51.11
55656;BME280;41530;52.382;5.270;2023-01-30T00:08:51;101855.50;;;13.52;51.00
55656;BME280;41530;52.382;5.270;2023-01-30T00:11:18;101851.72;;;13.56;50.91
55656;BME280;41530;52.382;5.270;2023-01-30T00:13:47;101835.50;;;13.48;51.03
55656;BME280;41530;52.382;5.270;2023-01-30T00:16:15;101841.53;;;13.50;51.25
55656;BME280;41530;52.382;5.270;2023-01-30T00:18:43;101843.22;;;13.51;51.29
55656;BME280;41530;52.382;5.270;2023-01-30T00:21:12;101843.13;;;13.52;51.23
55656;BME280;41530;52.382;5.270;2023-01-30T00:23:39;101826.81;;;13.46;51.43
55656;BME280;41530;52.382;5.270;2023-01-30T00:26:06;101840.59;;;13.51;51.50
55656;BME280;41530;52.382;5.270;2023-01-30T00:28:34;101813.41;;;13.49;51.44
55656;BME280;41530;52.382;5.270;2023-01-30T00:31:19;101814.44;;;13.46;51.58
55656;BME280;41530;52.382;5.270;2023-01-30T00:33:46;101806.00;;;13.41;51.67
55656;BME280;41530;52.382;5.270;2023-01-30T00:36:12;101777.31;;;13.35;51.66
55656;BME280;41530;52.382;5.270;2023-01-30T00:38:39;101789.19;;;13.42;51.81
55656;BME280;41530;52.382;5.270;2023-01-30T00:41:06;101790.31;;;13.38;51.55
55656;BME280;41530;52.382;5.270;2023-01-30T00:43:33;101794.56;;;13.41;51.66
55656;BME280;41530;52.382;5.270;2023-01-30T00:46:29;101779.19;;;13.33;51.98
55656;BME280;41530;52.382;5.270;2023-01-30T00:49:15;101778.06;;;13.37;51.79
55656;BME280;41530;52.382;5.270;2023-01-30T00:51:41;101769.28;;;13.37;51.82
55656;BME280;41530;52.382;5.270;2023-01-30T00:54:28;101756.38;;;13.32;51.99
55656;BME280;41530;52.382;5.270;2023-01-30T00:56:55;101768.53;;;13.35;52.00
55656;BME280;41530;52.382;5.270;2023-01-30T00:59:22;101744.75;;;13.35;51.85
55656;BME280;41530;52.382;5.270;2023-01-30T01:01:48;101757.44;;;13.30;52.15
55656;BME280;41530;52.382;5.270;2023-01-30T01:04:15;101754.56;;;13.33;51.93
55656;BME280;41530;52.382;5.270;2023-01-30T01:06:42;101730.38;;;13.26;52.37
55656;BME280;41530;52.382;5.270;2023-01-30T01:09:09;101736.41;;;13.28;52.21
55656;BME280;41530;52.382;5.270;2023-01-30T01:11:36;101745.06;;;13.30;52.23
55656;BME280;41530;52.382;5.270;2023-01-30T01:14:04;101743.38;;;13.29;52.21
55656;BME280;41530;52.382;5.270;2023-01-30T01:16:32;101748.66;;;13.29;52.06
55656;BME280;41530;52.382;5.270;2023-01-30T01:19:00;101725.19;;;13.25;52.38
55656;BME280;41530;52.382;5.270;2023-01-30T01:21:27;101727.16;;;13.21;52.44
55656;BME280;41530;52.382;5.270;2023-01-30T01:23:57;101720.75;;;13.25;52.34
55656;BME280;41530;52.382;5.270;2023-01-30T01:26:24;101732.16;;;13.26;52.48
55656;BME280;41530;52.382;5.270;2023-01-30T01:28:55;101734.16;;;13.22;52.75
55656;BME280;41530;52.382;5.270;2023-01-30T01:31:23;101741.88;;;13.25;52.65
55656;BME280;41530;52.382;5.270;2023-01-30T01:33:50;101728.88;;;13.22;52.68
55656;BME280;41530;52.382;5.270;2023-01-30T01:36:17;101735.84;;;13.23;52.52
55656;BME280;41530;52.382;5.270;2023-01-30T01:39:04;101721.13;;;13.19;52.70
55656;BME280;41530;52.382;5.270;2023-01-30T01:41:32;101735.84;;;13.23;52.92
55656;BME280;41530;52.382;5.270;2023-01-30T01:44:09;101725.28;;;13.23;53.00
55656;BME280;41530;52.382;5.270;2023-01-30T01:46:50;101736.78;;;13.22;53.29
55656;BME280;41530;52.382;5.270;2023-01-30T01:49:32;101731.72;;;13.19;53.44
55656;BME280;41530;52.382;5.270;2023-01-30T01:52:18;101726.22;;;13.22;53.77
55656;BME280;41530;52.382;5.270;2023-01-30T01:54:52;101734.25;;;13.20;53.71
55656;BME280;41530;52.382;5.270;2023-01-30T01:57:38;101712.50;;;13.17;53.92
55656;BME280;41530;52.382;5.270;2023-01-30T02:00:14;101720.41;;;13.17;53.80
55656;BME280;41530;52.382;5.270;2023-01-30T02:02:43;101722.22;;;13.16;53.61
55656;BME280;41530;52.382;5.270;2023-01-30T02:05:14;101715.41;;;13.12;53.54
55656;BME280;41530;52.382;5.270;2023-01-30T02:07:51;101709.94;;;13.15;53.94
55656;BME280;41530;52.382;5.270;2023-01-30T02:10:45;101703.13;;;13.11;53.84
55656;BME280;41530;52.382;5.270;2023-01-30T02:13:14;101702.19;;;13.12;53.62
55656;BME280;41530;52.382;5.270;2023-01-30T02:15:41;101711.16;;;13.10;53.54
55656;BME280;41530;52.382;5.270;2023-01-30T02:18:09;101707.66;;;13.09;53.70
55656;BME280;41530;52.382;5.270;2023-01-30T02:20:44;101718.88;;;13.13;53.62
55656;BME280;41530;52.382;5.270;2023-01-30T02:26:46;101702.72;;;13.05;54.11
55656;BME280;41530;52.382;5.270;2023-01-30T02:30:06;101713.69;;;13.11;53.77
55656;BME280;41530;52.382;5.270;2023-01-30T02:47:54;101694.56;;;13.08;54.32
55656;BME280;41530;52.382;5.270;2023-01-30T02:50:26;101691.16;;;13.06;54.02
55656;BME280;41530;52.382;5.270;2023-01-30T02:52:55;101695.50;;;13.07;54.09
55656;BME280;41530;52.382;5.270;2023-01-30T02:55:26;101697.44;;;13.05;54.02
55656;BME280;41530;52.382;5.270;2023-01-30T02:57:53;101696.44;;;13.06;54.13
55656;BME280;41530;52.382;5.270;2023-01-30T03:03:25;101700.88;;;13.05;54.36
55656;BME280;41530;52.382;5.270;2023-01-30T03:11:22;101683.38;;;13.04;54.11
55656;BME280;41530;52.382;5.270;2023-01-30T03:14:36;101683.47;;;13.03;54.20
55656;BME280;41530;52.382;5.270;2023-01-30T03:17:02;101680.72;;;13.04;54.21
55656;BME280;41530;52.382;5.270;2023-01-30T03:19:29;101686.88;;;13.05;54.09
55656;BME280;41530;52.382;5.270;2023-01-30T03:21:56;101680.72;;;13.04;54.11
55656;BME280;41530;52.382;5.270;2023-01-30T03:24:23;101672.81;;;13.04;53.89
55656;BME280;41530;52.382;5.270;2023-01-30T03:26:54;101671.81;;;13.05;54.05
55656;BME280;41530;52.382;5.270;2023-01-30T03:29:23;101679.03;;;13.03;53.80
55656;BME280;41530;52.382;5.270;2023-01-30T03:31:49;101671.13;;;13.03;53.93
55656;BME280;41530;52.382;5.270;2023-01-30T03:34:16;101674.59;;;13.04;53.87
55656;BME280;41530;52.382;5.270;2023-01-30T03:36:43;101676.41;;;13.03;54.08
55656;BME280;41530;52.382;5.270;2023-01-30T03:39:10;101671.13;;;13.03;54.01
55656;BME280;41530;52.382;5.270;2023-01-30T03:41:37;101664.03;;;13.04;54.02
55656;BME280;41530;52.382;5.270;2023-01-30T03:44:05;101665.81;;;13.03;54.07
55656;BME280;41530;52.382;5.270;2023-01-30T03:46:32;101658.84;;;13.02;54.17
55656;BME280;41530;52.382;5.270;2023-01-30T03:48:59;101658.09;;;13.00;54.14
55656;BME280;41530;52.382;5.270;2023-01-30T03:51:26;101677.34;;;13.02;54.10
55656;BME280;41530;52.382;5.270;2023-01-30T03:53:52;101667.81;;;13.00;54.01
55656;BME280;41530;52.382;5.270;2023-01-30T03:56:19;101660.75;;;13.00;54.12
55656;BME280;41530;52.382;5.270;2023-01-30T03:58:46;101652.81;;;13.00;54.07
55656;BME280;41530;52.382;5.270;2023-01-30T04:01:13;101675.75;;;13.00;54.22
55656;BME280;41530;52.382;5.270;2023-01-30T04:03:41;101673.94;;;13.00;54.15
55656;BME280;41530;52.382;5.270;2023-01-30T04:06:08;101675.75;;;13.00;53.81
55656;BME280;41530;52.382;5.270;2023-01-30T04:08:35;101682.72;;;13.01;54.10
55656;BME280;41530;52.382;5.270;2023-01-30T04:11:01;101673.94;;;13.00;54.20
55656;BME280;41530;52.382;5.270;2023-01-30T04:13:29;101681.88;;;13.00;54.20
55656;BME280;41530;52.382;5.270;2023-01-30T04:16:23;101681.97;;;12.99;54.49
55656;BME280;41530;52.382;5.270;2023-01-30T04:18:50;101660.00;;;12.98;54.04
55656;BME280;41530;52.382;5.270;2023-01-30T04:21:17;101676.78;;;12.97;54.05
55656;BME280;41530;52.382;5.270;2023-01-30T04:23:44;101663.59;;;12.97;53.99
55656;BME280;41530;52.382;5.270;2023-01-30T04:26:12;101682.06;;;12.97;54.25
55656;BME280;41530;52.382;5.270;2023-01-30T04:28:39;101679.44;;;12.97;53.96
55656;BME280;41530;52.382;5.270;2023-01-30T04:31:06;101690.00;;;12.97;53.75
55656;BME280;41530;52.382;5.270;2023-01-30T04:33:33;101675.94;;;12.97;54.29
55656;BME280;41530;52.382;5.270;2023-01-30T04:36:03;101697.91;;;12.97;54.18
55656;BME280;41530;52.382;5.270;2023-01-30T04:38:32;101676.78;;;12.97;53.70
55656;BME280;41530;52.382;5.270;2023-01-30T04:40:59;101677.72;;;12.96;54.06
55656;BME280;41530;52.382;5.270;2023-01-30T04:43:28;101690.09;;;12.96;54.01
55656;BME280;41530;52.382;5.270;2023-01-30T04:45:55;101678.69;;;12.95;54.12
55656;BME280;41530;52.382;5.270;2023-01-30T04:48:23;101675.19;;;12.95;53.97
55656;BME280;41530;52.382;5.270;2023-01-30T04:50:53;101672.56;;;12.95;53.94
55656;BME280;41530;52.382;5.270;2023-01-30T04:53:21;101670.84;;;12.94;53.57
55656;BME280;41530;52.382;5.270;2023-01-30T04:55:48;101688.59;;;12.92;53.76
55656;BME280;41530;52.382;5.270;2023-01-30T04:58:16;101693.06;;;12.91;53.51
55656;BME280;41530;52.382;5.270;2023-01-30T05:00:44;101693.88;;;12.92;53.63
55656;BME280;41530;52.382;5.270;2023-01-30T05:03:11;101697.50;;;12.91;53.53
55656;BME280;41530;52.382;5.270;2023-01-30T05:05:38;101706.25;;;12.91;53.43
55656;BME280;41530;52.382;5.270;2023-01-30T05:08:05;101699.28;;;12.90;53.24
55656;BME280;41530;52.382;5.270;2023-01-30T05:10:32;101700.97;;;12.91;53.46
55656;BME280;41530;52.382;5.270;2023-01-30T05:13:03;101688.72;;;12.90;53.75
55656;BME280;41530;52.382;5.270;2023-01-30T05:15:31;101683.31;;;12.92;53.08
55656;BME280;41530;52.382;5.270;2023-01-30T05:17:58;101693.88;;;12.92;53.15
55656;BME280;41530;52.382;5.270;2023-01-30T05:20:25;101691.22;;;12.92;53.38
55656;BME280;41530;52.382;5.270;2023-01-30T05:22:52;101693.88;;;12.92;52.98
55656;BME280;41530;52.382;5.270;2023-01-30T05:25:20;101715.84;;;12.92;52.93
55656;BME280;41530;52.382;5.270;2023-01-30T05:27:47;101715.97;;;12.91;52.93
55656;BME280;41530;52.382;5.270;2023-01-30T05:30:13;101706.34;;;12.90;52.74
55656;BME280;41530;52.382;5.270;2023-01-30T05:32:41;101719.56;;;12.90;52.43
55656;BME280;41530;52.382;5.270;2023-01-30T05:35:08;101709.94;;;12.89;52.15
55656;BME280;41530;52.382;5.270;2023-01-30T05:37:35;101710.88;;;12.88;52.39
55656;BME280;41530;52.382;5.270;2023-01-30T05:40:04;101717.88;;;12.89;52.28
55656;BME280;41530;52.382;5.270;2023-01-30T05:42:31;101715.31;;;12.87;52.13
55656;BME280;41530;52.382;5.270;2023-01-30T05:44:58;101707.41;;;12.87;52.01
55656;BME280;41530;52.382;5.270;2023-01-30T05:47:25;101733.81;;;12.87;52.21
55656;BME280;41530;52.382;5.270;2023-01-30T05:49:51;101710.03;;;12.87;51.75
55656;BME280;41530;52.382;5.270;2023-01-30T05:52:18;101711.09;;;12.84;51.60
55656;BME280;41530;52.382;5.270;2023-01-30T05:54:45;101711.09;;;12.84;51.46
55656;BME280;41530;52.382;5.270;2023-01-30T05:57:12;101724.28;;;12.84;51.37
55656;BME280;41530;52.382;5.270;2023-01-30T05:59:38;101704.09;;;12.83;51.15
55656;BME280;41530;52.382;5.270;2023-01-30T06:02:05;101715.63;;;12.82;51.14
55656;BME280;41530;52.382;5.270;2023-01-30T06:04:32;101712.22;;;12.80;51.18
55656;BME280;41530;52.382;5.270;2023-01-30T06:06:59;101726.28;;;12.81;51.00
55656;BME280;41530;52.382;5.270;2023-01-30T06:09:26;101735.97;;;12.80;50.84
55656;BME280;41530;52.382;5.270;2023-01-30T06:11:52;101725.53;;;12.79;50.78
55656;BME280;41530;52.382;5.270;2023-01-30T06:14:20;101745.69;;;12.80;50.80
55656;BME280;41530;52.382;5.270;2023-01-30T06:16:47;101743.91;;;12.80;50.83
55656;BME280;41530;52.382;5.270;2023-01-30T06:19:14;101749.94;;;12.82;51.40
55656;BME280;41530;52.382;5.270;2023-01-30T06:21:41;101753.25;;;12.86;51.36
55656;BME280;41530;52.382;5.270;2023-01-30T06:24:07;101739.94;;;12.88;51.27
55656;BME280;41530;52.382;5.270;2023-01-30T06:26:34;101737.94;;;12.91;51.55
55656;BME280;41530;52.382;5.270;2023-01-30T06:29:01;101726.31;;;12.94;51.58
55656;BME280;41530;52.382;5.270;2023-01-30T06:31:27;101734.25;;;12.94;51.13
55656;BME280;41530;52.382;5.270;2023-01-30T06:33:55;101723.56;;;12.95;51.50
55656;BME280;41530;52.382;5.270;2023-01-30T06:36:21;101726.97;;;12.97;51.32
55656;BME280;41530;52.382;5.270;2023-01-30T06:38:48;101720.75;;;12.98;51.47
55656;BME280;41530;52.382;5.270;2023-01-30T06:41:15;101743.56;;;12.99;51.56
55656;BME280;41530;52.382;5.270;2023-01-30T06:43:41;101735.53;;;13.01;51.55
55656;BME280;41530;52.382;5.270;2023-01-30T06:46:08;101732.06;;;13.00;51.28
55656;BME280;41530;52.382;5.270;2023-01-30T06:48:35;101742.44;;;13.03;51.67
55656;BME280;41530;52.382;5.270;2023-01-30T06:51:02;101744.13;;;13.04;51.66
55656;BME280;41530;52.382;5.270;2023-01-30T06:53:28;101743.16;;;13.05;51.82
55656;BME280;41530;52.382;5.270;2023-01-30T06:55:59;101745.59;;;13.08;51.52
55656;BME280;41530;52.382;5.270;2023-01-30T06:58:27;101747.28;;;13.09;51.86
55656;BME280;41530;52.382;5.270;2023-01-30T07:00:54;101748.88;;;13.12;51.97
55656;BME280;41530;52.382;5.270;2023-01-30T07:03:21;101743.50;;;13.13;51.64
55656;BME280;41530;52.382;5.270;2023-01-30T07:05:48;101748.72;;;13.15;51.92
55656;BME280;41530;52.382;5.270;2023-01-30T07:08:15;101761.09;;;13.14;52.16
55656;BME280;41530;52.382;5.270;2023-01-30T07:10:43;101763.41;;;13.19;52.28
55656;BME280;41530;52.382;5.270;2023-01-30T07:13:10;101770.50;;;13.18;52.38
55656;BME280;41530;52.382;5.270;2023-01-30T07:15:37;101776.44;;;13.22;52.46
55656;BME280;41530;52.382;5.270;2023-01-30T07:18:05;101785.19;;;13.23;52.37
55656;BME280;41530;52.382;5.270;2023-01-30T07:20:32;101774.53;;;13.24;52.39
55656;BME280;41530;52.382;5.270;2023-01-30T07:22:58;101784.06;;;13.27;52.43
55656;BME280;41530;52.382;5.270;2023-01-30T07:25:26;101779.63;;;13.27;52.47
55656;BME280;41530;52.382;5.270;2023-01-30T07:27:59;101780.47;;;13.28;52.51
55656;BME280;41530;52.382;5.270;2023-01-30T07:30:28;101775.94;;;13.30;52.70
55656;BME280;41530;52.382;5.270;2023-01-30T07:32:57;101779.31;;;13.32;52.43
55656;BME280;41530;52.382;5.270;2023-01-30T07:35:26;101780.16;;;13.32;52.58
55656;BME280;41530;52.382;5.270;2023-01-30T07:37:53;101794.13;;;13.34;53.04
55656;BME280;41530;52.382;5.270;2023-01-30T07:40:20;101781.56;;;13.38;52.85
55656;BME280;41530;52.382;5.270;2023-01-30T07:43:01;101774.47;;;13.38;52.98
55656;BME280;41530;52.382;5.270;2023-01-30T07:45:37;101763.81;;;13.40;53.04
55656;BME280;41530;52.382;5.270;2023-01-30T07:48:06;101763.81;;;13.40;52.81
55656;BME280;41530;52.382;5.270;2023-01-30T07:50:33;101770.78;;;13.41;52.72
55656;BME280;41530;52.382;5.270;2023-01-30T07:53:04;101786.53;;;13.42;52.83
55656;BME280;41530;52.382;5.270;2023-01-30T07:55:32;101783.91;;;13.42;52.66
55656;BME280;41530;52.382;5.270;2023-01-30T07:57:59;101795.22;;;13.44;52.82
55656;BME280;41530;52.382;5.270;2023-01-30T08:00:26;101786.44;;;13.44;52.68
55656;BME280;41530;52.382;5.270;2023-01-30T08:02:53;101801.22;;;13.46;52.60
55656;BME280;41530;52.382;5.270;2023-01-30T08:05:20;101788.75;;;13.48;52.88
55656;BME280;41530;52.382;5.270;2023-01-30T08:07:48;101786.88;;;13.50;52.72
55656;BME280;41530;52.382;5.270;2023-01-30T08:10:15;101795.66;;;13.51;52.64
55656;BME280;41530;52.382;5.270;2023-01-30T08:12:43;101802.53;;;13.53;52.80
55656;BME280;41530;52.382;5.270;2023-01-30T08:15:10;101808.66;;;13.54;52.44
55656;BME280;41530;52.382;5.270;2023-01-30T08:17:37;101812.16;;;13.54;52.43
55656;BME280;41530;52.382;5.270;2023-01-30T08:20:04;101841.13;;;13.56;52.61
55656;BME280;41530;52.382;5.270;2023-01-30T08:22:31;101834.06;;;13.57;52.76
55656;BME280;41530;52.382;5.270;2023-01-30T08:24:58;101830.56;;;13.56;52.65
55656;BME280;41530;52.382;5.270;2023-01-30T08:27:25;101842.72;;;13.59;52.81
55656;BME280;41530;52.382;5.270;2023-01-30T08:29:52;101837.53;;;13.57;52.70
55656;BME280;41530;52.382;5.270;2023-01-30T08:32:19;101832.13;;;13.59;52.39
55656;BME280;41530;52.382;5.270;2023-01-30T08:34:46;101827.81;;;13.58;52.56
55656;BME280;41530;52.382;5.270;2023-01-30T08:37:13;101824.19;;;13.59;52.61
55656;BME280;41530;52.382;5.270;2023-01-30T08:39:40;101827.81;;;13.58;52.68
55656;BME280;41530;52.382;5.270;2023-01-30T08:42:07;101824.19;;;13.59;52.51
55656;BME280;41530;52.382;5.270;2023-01-30T08:44:34;101826.97;;;13.57;52.64
55656;BME280;41530;52.382;5.270;2023-01-30T08:47:01;101822.53;;;13.58;52.76
55656;BME280;41530;52.382;5.270;2023-01-30T08:49:28;101824.19;;;13.59;52.94
55656;BME280;41530;52.382;5.270;2023-01-30T08:51:55;101833.81;;;13.60;53.15
55656;BME280;41530;52.382;5.270;2023-01-30T08:54:22;101855.72;;;13.62;53.08
55656;BME280;41530;52.382;5.270;2023-01-30T08:56:49;101860.06;;;13.63;52.80
55656;BME280;41530;52.382;5.270;2023-01-30T08:59:16;101867.25;;;13.61;52.78
55656;BME280;41530;52.382;5.270;2023-01-30T09:01:43;101868.00;;;13.63;53.04
55656;BME280;41530;52.382;5.270;2023-01-30T09:04:09;101874.22;;;13.62;52.91
55656;BME280;41530;52.382;5.270;2023-01-30T09:06:36;101877.72;;;13.62;52.79
55656;BME280;41530;52.382;5.270;2023-01-30T09:09:03;101875.09;;;13.62;52.97
55656;BME280;41530;52.382;5.270;2023-01-30T09:11:30;101880.38;;;13.62;53.05
55656;BME280;41530;52.382;5.270;2023-01-30T09:13:57;101894.44;;;13.63;52.86
55656;BME280;41530;52.382;5.270;2023-01-30T09:16:24;101891.91;;;13.61;53.00
55656;BME280;41530;52.382;5.270;2023-01-30T09:18:51;101888.22;;;13.64;53.43
55656;BME280;41530;52.382;5.270;2023-01-30T09:21:19;101896.25;;;13.62;53.06
55656;BME280;41530;52.382;5.270;2023-01-30T09:23:47;101896.25;;;13.62;52.99
55656;BME280;41530;52.382;5.270;2023-01-30T09:26:14;101904.91;;;13.64;52.90
55656;BME280;41530;52.382;5.270;2023-01-30T09:28:41;101889.25;;;13.61;53.30
55656;BME280;41530;52.382;5.270;2023-01-30T09:31:08;101895.19;;;13.65;53.26
55656;BME280;41530;52.382;5.270;2023-01-30T09:33:35;101911.06;;;13.65;53.55
55656;BME280;41530;52.382;5.270;2023-01-30T09:36:02;101910.22;;;13.64;53.13
55656;BME280;41530;52.382;5.270;2023-01-30T09:38:30;101904.06;;;13.64;52.93
55656;BME280;41530;52.382;5.270;2023-01-30T09:41:25;101901.34;;;13.65;53.90
55656;BME280;41530;52.382;5.270;2023-01-30T09:44:03;101911.06;;;13.65;53.89
55656;BME280;41530;52.382;5.270;2023-01-30T09:51:54;101912.75;;;13.66;53.59
55656;BME280;41530;52.382;5.270;2023-01-30T09:54:34;101926.72;;;13.68;53.73
55656;BME280;41530;52.382;5.270;2023-01-30T09:57:20;101911.72;;;13.68;53.28
55656;BME280;41530;52.382;5.270;2023-01-30T10:04:59;101919.56;;;13.70;53.42
55656;BME280;41530;52.382;5.270;2023-01-30T10:07:49;101929.28;;;13.69;53.39
55656;BME280;41530;52.382;5.270;2023-01-30T10:21:51;101960.91;;;13.71;53.38
55656;BME280;41530;52.382;5.270;2023-01-30T10:24:28;101960.06;;;13.70;53.26
55656;BME280;41530;52.382;5.270;2023-01-30T10:26:57;101959.94;;;13.72;53.05
55656;BME280;41530;52.382;5.270;2023-01-30T10:29:29;101958.03;;;13.74;53.60
55656;BME280;41530;52.382;5.270;2023-01-30T10:32:14;101951.81;;;13.75;53.40
55656;BME280;41530;52.382;5.270;2023-01-30T10:34:50;101944.53;;;13.78;53.25
55656;BME280;41530;52.382;5.270;2023-01-30T10:37:28;101940.84;;;13.81;53.09
55656;BME280;41530;52.382;5.270;2023-01-30T10:51:44;101945.31;;;13.93;53.48
55656;BME280;41530;52.382;5.270;2023-01-30T10:54:19;101944.38;;;13.94;53.49
55656;BME280;41530;52.382;5.270;2023-01-30T10:59:57;101954.09;;;13.94;53.65
55656;BME280;41530;52.382;5.270;2023-01-30T11:05:19;101968.28;;;13.93;53.20
55656;BME280;41530;52.382;5.270;2023-01-30T11:07:47;101966.50;;;13.93;53.18
55656;BME280;41530;52.382;5.270;2023-01-30T11:10:21;101961.94;;;13.95;53.15
55656;BME280;41530;52.382;5.270;2023-01-30T11:12:52;101976.13;;;13.94;53.19
55656;BME280;41530;52.382;5.270;2023-01-30T11:15:21;101968.09;;;13.96;52.98
55656;BME280;41530;52.382;5.270;2023-01-30T11:18:03;101968.00;;;13.97;53.46
55656;BME280;41530;52.382;5.270;2023-01-30T11:21:06;101969.78;;;13.97;53.35
55656;BME280;41530;52.382;5.270;2023-01-30T11:23:40;101965.22;;;13.99;53.39
55656;BME280;41530;52.382;5.270;2023-01-30T11:26:18;101957.19;;;14.00;53.42
55656;BME280;41530;52.382;5.270;2023-01-30T11:28:45;101953.50;;;14.03;53.09
55656;BME280;41530;52.382;5.270;2023-01-30T11:31:20;101965.78;;;14.04;53.70
55656;BME280;41530;52.382;5.270;2023-01-30T11:34:12;101963.88;;;14.06;53.21
55656;BME280;41530;52.382;5.270;2023-01-30T11:36:40;101966.53;;;14.06;53.00
55656;BME280;41530;52.382;5.270;2023-01-30T11:44:34;101985.78;;;14.08;53.48
55656;BME280;41530;52.382;5.270;2023-01-30T11:47:22;101978.81;;;14.07;52.98
55656;BME280;41530;52.382;5.270;2023-01-30T11:49:53;101991.28;;;14.05;53.01
55656;BME280;41530;52.382;5.270;2023-01-30T11:52:43;101995.53;;;14.07;52.95
55656;BME280;41530;52.382;5.270;2023-01-30T11:55:15;101999.97;;;14.07;52.97
55656;BME280;41530;52.382;5.270;2023-01-30T11:57:48;101987.59;;;14.07;52.70
55656;BME280;41530;52.382;5.270;2023-01-30T12:00:19;101998.06;;;14.09;53.19
55656;BME280;41530;52.382;5.270;2023-01-30T12:02:49;101987.50;;;14.09;53.14
55656;BME280;41530;52.382;5.270;2023-01-30T12:05:37;101993.63;;;14.09;53.18
55656;BME280;41530;52.382;5.270;2023-01-30T12:11:00;102003.38;;;14.09;52.96
55656;BME280;41530;52.382;5.270;2023-01-30T12:13:32;102009.50;;;14.09;52.89
55656;BME280;41530;52.382;5.270;2023-01-30T12:24:43;102006.03;;;14.09;53.08
55656;BME280;41530;52.382;5.270;2023-01-30T12:30:38;102014.72;;;14.11;53.33
55656;BME280;41530;52.382;5.270;2023-01-30T12:33:12;102011.09;;;14.12;53.13
55656;BME280;41530;52.382;5.270;2023-01-30T12:51:56;102030.34;;;14.14;53.41
55656;BME280;41530;52.382;5.270;2023-01-30T12:59:55;102032.91;;;14.15;53.08
55656;BME280;41530;52.382;5.270;2023-01-30T13:05:17;102043.50;;;14.15;53.19
55656;BME280;41530;52.382;5.270;2023-01-30T13:08:11;102040.84;;;14.15;53.50
55656;BME280;41530;52.382;5.270;2023-01-30T13:11:11;102052.28;;;14.16;53.25
55656;BME280;41530;52.382;5.270;2023-01-30T13:13:54;102050.50;;;14.16;53.17
55656;BME280;41530;52.382;5.270;2023-01-30T13:16:25;102052.19;;;14.17;53.15
55656;BME280;41530;52.382;5.270;2023-01-30T13:19:16;102053.97;;;14.17;53.43
55656;BME280;41530;52.382;5.270;2023-01-30T13:22:07;102062.13;;;14.14;53.60
55656;BME280;41530;52.382;5.270;2023-01-30T13:25:06;102066.38;;;14.16;53.31
55656;BME280;41530;52.382;5.270;2023-01-30T13:27:43;102073.34;;;14.17;53.12
55656;BME280;41530;52.382;5.270;2023-01-30T13:30:15;102075.91;;;14.19;53.01
55656;BME280;41530;52.382;5.270;2023-01-30T13:32:48;102079.41;;;14.19;52.99
55656;BME280;41530;52.382;5.270;2023-01-30T13:35:28;102083.84;;;14.19;53.06
55656;BME280;41530;52.382;5.270;2023-01-30T13:37:56;102080.34;;;14.18;53.19
55656;BME280;41530;52.382;5.270;2023-01-30T13:40:26;102097.94;;;14.19;53.08
55656;BME280;41530;52.382;5.270;2023-01-30T13:45:32;102091.69;;;14.20;53.37
55656;BME280;41530;52.382;5.270;2023-01-30T14:02:22;102119.84;;;14.21;53.20
55656;BME280;41530;52.382;5.270;2023-01-30T14:04:52;102123.47;;;14.20;53.18
55656;BME280;41530;52.382;5.270;2023-01-30T14:12:46;102146.31;;;14.21;53.78
55656;BME280;41530;52.382;5.270;2023-01-30T14:20:31;102158.63;;;14.22;53.50
55656;BME280;41530;52.382;5.270;2023-01-30T14:23:27;102169.19;;;14.22;53.70
55656;BME280;41530;52.382;5.270;2023-01-30T14:25:55;102174.59;;;14.21;53.29
55656;BME280;41530;52.382;5.270;2023-01-30T14:30:49;102177.16;;;14.22;53.18
55656;BME280;41530;52.382;5.270;2023-01-30T14:38:16;102193.03;;;14.22;53.26
55656;BME280;41530;52.382;5.270;2023-01-30T14:51:35;102216.75;;;14.24;52.89
55656;BME280;41530;52.382;5.270;2023-01-30T14:59:34;102253.81;;;14.24;53.36
55656;BME280;41530;52.382;5.270;2023-01-30T15:07:12;102263.34;;;14.26;53.68
55656;BME280;41530;52.382;5.270;2023-01-30T15:09:44;102253.81;;;14.24;53.98
55656;BME280;41530;52.382;5.270;2023-01-30T15:15:34;102262.47;;;14.26;54.01
55656;BME280;41530;52.382;5.270;2023-01-30T15:18:28;102272.22;;;14.25;54.08
55656;BME280;41530;52.382;5.270;2023-01-30T15:26:43;102295.09;;;14.26;54.03
55656;BME280;41530;52.382;5.270;2023-01-30T15:32:24;102301.34;;;14.25;54.34
55656;BME280;41530;52.382;5.270;2023-01-30T15:35:26;102313.63;;;14.26;53.89
55656;BME280;41530;52.382;5.270;2023-01-30T15:37:48;102316.28;;;14.26;54.08
55656;BME280;41530;52.382;5.270;2023-01-30T15:42:47;102321.56;;;14.26;54.56
55656;BME280;41530;52.382;5.270;2023-01-30T15:48:02;102337.34;;;14.28;54.44
55656;BME280;41530;52.382;5.270;2023-01-30T15:50:34;102338.22;;;14.28;54.10
55656;BME280;41530;52.382;5.270;2023-01-30T15:53:00;102346.16;;;14.28;54.16
55656;BME280;41530;52.382;5.270;2023-01-30T15:55:35;102338.31;;;14.27;54.35
55656;BME280;41530;52.382;5.270;2023-01-30T15:58:04;102352.31;;;14.29;54.21
55656;BME280;41530;52.382;5.270;2023-01-30T16:00:35;102358.53;;;14.28;54.25
55656;BME280;41530;52.382;5.270;2023-01-30T16:03:05;102357.59;;;14.29;54.31
55656;BME280;41530;52.382;5.270;2023-01-30T16:05:36;102365.53;;;14.29;54.06
55656;BME280;41530;52.382;5.270;2023-01-30T16:08:15;102365.53;;;14.29;54.58
55656;BME280;41530;52.382;5.270;2023-01-30T16:10:45;102367.31;;;14.28;54.15
55656;BME280;41530;52.382;5.270;2023-01-30T16:13:19;102384.91;;;14.30;54.40
55656;BME280;41530;52.382;5.270;2023-01-30T16:15:52;102379.72;;;14.28;54.32